Record high temperature 44.9°C Record low temperature -0.3°C Record high gust 87.3 km/h Record high average 77.7 km/h Record daily rain 484.8 mm Record low windchill -5.8°C Record high barometer 1043.6 hPa Record low barometer 978.0 hPa
Daily high pressure 1010.6 mb Daily low pressure 1006.5 mb Daily low windchill 10.2°C Daily high heat index 11.9°C Daily high gust speed 24.4 kmh WNW Daily high average speed 16.5 kmh NNW
Estación de MeteoMurcia.com -------- Murcia-Puente Tocinos
Ultima grabación a: 09:00 Data: 23 January 2019, time of next update: 09:10
Tiempo actualClear Temperatura actual10.7°C (51.3°F), Temperatura aparente 9.4°C
Temperatura máxima (desde medianoche)11.9°C at: 00:00 Temperatura mínima (desde medianoche)10.2°C at: 08:35
Velocidad media del viento (diez minutos)6.3 kmh (3.4 kts) Dirección del viento (diez minutos)SSW (199°)
Temperatura aparente 10.7°C ráfagas maxima (última hora)18.3 kmh (9.9 kts) at: 08:06
ráfagas maxima (desde medianoche)24.4 kmh (13.2 kts) at: 00:02 Maximo media de un minuto (desde medianoche)16.5 kmh (8.9 kts) at: 00:00
Lluvia (última hora)0.0 mm Lluvia (desde medianoche)0.0 mm (0.00 in.)---
Lluvia Este mes 1.5 mm (0.06 in.) Lluvia Hasta la fecha este año1.5 mm (0.06 in.)
Lluvia máxima por minuto (última hora)0.0 mm/min Lluvia maxima por hora (últimas 6 horas)0.0 mm/hora
Lluvia de ayer 0.0 mm Punto de rocío 3.2°C (Wet Bulb :7.4°C )
Humedad 60 %, Humidex 9.4°C Barómetro corregido a msl1006.5 mb
cambio de presión-0.8 mb (última hora) Tendencia (últimas 1 hora)ESTACIONARIO
cambio de presión (últimas 12 horas)-4.7 mb cambio de presión (últimas 6 horas)-2.7 mb
Current Temp. Interna 18.8°C
Current Hum. Interna 49%


Última imagen cámara web


Weather report/warning/Metars

Alicante / El Altet, Spain (LEAL) 38-17N 000-33W 31M
Jan 23, 2019 - 02:30 AM EST / 2019.01.23 0730 UTC
Wind: from the WSW (240 degrees) at 8 MPH (7 KT) (direction variable):0
Visibility: greater than 7 mile(s):0
Temperature: 50 F (10 C)
Dew Point: 37 F (3 C)
Relative Humidity: 61%
Pressure (altimeter): 29.74 in. Hg (1007 hPa)
ob: LEAL 230730Z 24007KT 210V270 CAVOK 10/03 Q1007 NOSIG
cycle: 7
Murcia / San Javier, Spain (LELC) 37-47N 000-48W 3M
Jan 23, 2019 - 02:30 AM EST / 2019.01.23 0730 UTC
Wind: from the W (270 degrees) at 14 MPH (12 KT):0
Visibility: greater than 7 mile(s):0
Temperature: 51 F (11 C)
Dew Point: 37 F (3 C)
Relative Humidity: 57%
Pressure (altimeter): 29.77 in. Hg (1008 hPa)
ob: LELC 230730Z 27012KT CAVOK 11/03 Q1008 NOSIG
cycle: 7
Murcia / Alcantarilla, Spain (LERI) 37-57N 001-14W 75M
Jan 23, 2019 - 02:00 AM EST / 2019.01.23 0700 UTC
Wind: Variable at 2 MPH (2 KT):0
Visibility: greater than 7 mile(s):0
Temperature: 41 F (5 C)
Dew Point: 35 F (2 C)
Relative Humidity: 80%
Pressure (altimeter): 29.77 in. Hg (1008 hPa)
ob: LERI 230700Z VRB02KT CAVOK 05/02 Q1008 NOSIG
cycle: 7
Gerona / Costa Brava, Spain (LEGE) 41-54N 002-46E 129M
Jan 23, 2019 - 02:30 AM EST / 2019.01.23 0730 UTC
Wind: Variable at 2 MPH (2 KT):0
Visibility: greater than 7 mile(s):0
Temperature: 32 F (0 C)
Dew Point: 32 F (0 C)
Relative Humidity: 100%
Pressure (altimeter): 29.47 in. Hg (0998 hPa)
ob: LEGE 230730Z VRB02KT CAVOK 00/M00 Q0998
cycle: 7
Madri-Colmenar, Spain (LECV) 40-39N 003-44W
Jan 23, 2019 - 02:00 AM EST / 2019.01.23 0700 UTC
Wind: from the SW (220 degrees) at 10 MPH (9 KT) (direction variable):0
Visibility: greater than 7 mile(s):0
Sky conditions: overcast
Temperature: 42 F (6 C)
Dew Point: 35 F (2 C)
Relative Humidity: 75%
Pressure (altimeter): 29.71 in. Hg (1006 hPa)
ob: LECV 230700Z 22009KT 160V260 9999 OVC040 06/02 Q1006
cycle: 7
Asturias / Aviles, Spain (LEAS) 43-33N 006-02W 130M
Jan 23, 2019 - 02:30 AM EST / 2019.01.23 0730 UTC
Wind: from the WNW (300 degrees) at 26 MPH (23 KT) (direction variable):0
Visibility: 2 mile(s):0
Sky conditions: mostly cloudy
Weather: light rain
Temperature: 50 F (10 C)
Dew Point: 50 F (10 C)
Relative Humidity: 100%
Pressure (altimeter): 29.85 in. Hg (1011 hPa)
ob: LEAS 230730Z 30023KT 270V330 4300 1100NW -RA SCT004 BKN005 BKN024 10/10 Q1011 NOSIG
cycle: 7
Almeria / Aeropuerto, Spain (LEAM) 36-51N 002-23W 21M
Jan 23, 2019 - 02:30 AM EST / 2019.01.23 0730 UTC
Wind: from the NW (310 degrees) at 18 MPH (16 KT):0
Visibility: greater than 7 mile(s):0
Temperature: 57 F (14 C)
Dew Point: 35 F (2 C)
Relative Humidity: 44%
Pressure (altimeter): 29.83 in. Hg (1010 hPa)
ob: LEAM 230730Z 31016KT CAVOK 14/02 Q1010
cycle: 7
Pamplona / Noain, Spain (LEPP) 42-46N 001-38W 453M
Jan 23, 2019 - 02:30 AM EST / 2019.01.23 0730 UTC
Wind: from the N (010 degrees) at 3 MPH (3 KT):0
Visibility: greater than 7 mile(s):0
Sky conditions: mostly cloudy
Weather: light rain
Temperature: 39 F (4 C)
Dew Point: 37 F (3 C)
Relative Humidity: 93%
Pressure (altimeter): 29.56 in. Hg (1001 hPa)
ob: LEPP 230730Z 01003KT 9999 -RA FEW017 SCT020 BKN035 04/03 Q1001
cycle: 7
Badajoz / Talavera La Real, Spain (LEBZ) 38-53N 006-49W 192M
Jan 23, 2019 - 02:00 AM EST / 2019.01.23 0700 UTC
Wind: from the W (260 degrees) at 15 MPH (13 KT):0
Visibility: greater than 7 mile(s):0
Sky conditions: mostly clear
Temperature: 50 F (10 C)
Dew Point: 46 F (8 C)
Relative Humidity: 87%
Pressure (altimeter): 30.03 in. Hg (1017 hPa)
ob: LEBZ 230700Z 26013KT 9999 FEW020 10/08 Q1017
cycle: 7
Albacete / Los Llanos, Spain (LEAB) 38-57N 001-51W 704M
Jan 23, 2019 - 02:00 AM EST / 2019.01.23 0700 UTC
Wind: from the W (270 degrees) at 18 MPH (16 KT):0
Visibility: greater than 7 mile(s):0
Sky conditions: mostly clear
Temperature: 41 F (5 C)
Dew Point: 37 F (3 C)
Relative Humidity: 86%
Pressure (altimeter): 29.77 in. Hg (1008 hPa)
ob: LEAB 230700Z 27016KT 9999 FEW047 05/03 Q1008 NOSIG
cycle: 7
Station name not available
Jan 23, 2019 - 02:30 AM EST / 2019.01.23 0730 UTC
Wind: from the SW (230 degrees) at 14 MPH (12 KT):0
Visibility: greater than 7 mile(s):0
Temperature: 48 F (9 C)
Dew Point: 35 F (2 C)
Relative Humidity: 61%
Pressure (altimeter): 29.77 in. Hg (1008 hPa)
ob: LEMI 230730Z 23012KT CAVOK 09/02 Q1008
cycle: 7



La informacion se graba a intervalos de 2 minutos, pero hay info grabada cada minuto. Optimizado para 800*600 y Color verdadero. Use el boton de

Use the RECARGA en su navegador para recojer la ulima info.

Clicar aquí para regarga diaria de medias/extremas del mes














Created by "Weather Display" software version 10.37S at this start time/date 23:04:47 04/11/2018

La estación de MeteoMurcia.com, publica sus datos en los siguientes proyectos:

Meteoclimatic www.awekas.at

W3Counter
Web Analytics